createdAt,value
2022-09-01T00:01:27.347Z,1.15
2022-09-01T00:02:59.158Z,1.33
2022-09-01T00:04:31.041Z,1.20
2022-09-01T00:06:04.223Z,1.27
2022-09-01T00:07:36.054Z,1.00
2022-09-01T00:09:13.894Z,1.23
2022-09-01T00:10:46.369Z,1.38
2022-09-01T00:12:18.535Z,1.27
2022-09-01T00:13:51.130Z,1.23
2022-09-01T00:15:22.958Z,1.15
2022-09-01T00:16:54.859Z,1.50
2022-09-01T00:18:26.666Z,1.33
2022-09-01T00:19:58.433Z,1.23
2022-09-01T00:21:37.533Z,1.30
2022-09-01T00:23:09.377Z,1.48
2022-09-01T00:24:41.162Z,1.15
2022-09-01T00:26:13.454Z,1.35
2022-09-01T00:27:45.207Z,1.35
2022-09-01T00:29:16.985Z,1.30
2022-09-01T00:30:48.774Z,1.20
2022-09-01T00:32:20.536Z,1.30
2022-09-01T00:33:53.207Z,1.10
2022-09-01T00:35:25.419Z,1.17
2022-09-01T00:36:57.407Z,1.20
2022-09-01T00:38:29.495Z,1.40
2022-09-01T00:40:01.269Z,1.30
2022-09-01T00:41:35.415Z,1.50
2022-09-01T00:43:20.715Z,1.58
2022-09-01T00:44:52.476Z,1.40
2022-09-01T00:46:29.390Z,1.48
2022-09-01T00:48:01.217Z,1.35
2022-09-01T00:49:41.786Z,1.50
2022-09-01T00:51:13.678Z,1.33
2022-09-01T00:52:51.261Z,1.20
2022-09-01T00:54:26.334Z,1.42
2022-09-01T00:55:58.264Z,1.25
2022-09-01T00:57:30.209Z,1.48
2022-09-01T00:59:02.453Z,1.30
2022-09-01T01:00:44.026Z,1.40
2022-09-01T01:02:15.961Z,1.65
2022-09-01T01:03:47.804Z,1.65
2022-09-01T01:05:21.764Z,1.50
2022-09-01T01:07:02.892Z,1.55
2022-09-01T01:08:38.026Z,1.73
2022-09-01T01:10:12.912Z,1.65
2022-09-01T01:11:47.624Z,1.80
2022-09-01T01:13:21.053Z,1.67
2022-09-01T01:14:52.886Z,1.80
2022-09-01T01:16:27.287Z,1.55
2022-09-01T01:17:59.120Z,1.73
2022-09-01T01:20:02.403Z,1.60
2022-09-01T01:22:01.587Z,1.95
2022-09-01T01:23:44.838Z,1.55
2022-09-01T01:25:19.081Z,1.70
2022-09-01T01:26:51.913Z,1.70
2022-09-01T01:28:26.928Z,1.55
2022-09-01T01:30:01.391Z,1.88
2022-09-01T01:31:35.457Z,1.73
2022-09-01T01:33:07.876Z,1.27
2022-09-01T01:34:42.700Z,1.58
2022-09-01T01:36:21.636Z,1.65
2022-09-01T01:37:54.520Z,1.80
2022-09-01T01:39:26.929Z,2.03
2022-09-01T01:40:58.862Z,1.75
2022-09-01T01:42:33.173Z,1.70
2022-09-01T01:44:05.435Z,1.30
2022-09-01T01:45:37.526Z,1.77
2022-09-01T01:47:13.462Z,1.63
2022-09-01T01:48:47.197Z,1.55
2022-09-01T01:50:23.737Z,1.73
2022-09-01T01:51:58.151Z,1.33
2022-09-01T01:55:12.710Z,2.00
2022-09-01T01:56:49.938Z,1.67
2022-09-01T01:58:24.660Z,1.67
2022-09-01T01:59:56.503Z,1.50
2022-09-01T02:01:30.182Z,1.70
2022-09-01T02:03:02.317Z,1.30
2022-09-01T02:04:34.613Z,1.40
2022-09-01T02:06:12.178Z,1.38
2022-09-01T02:07:45.227Z,1.50
2022-09-01T02:09:20.929Z,1.60
2022-09-01T02:10:55.462Z,1.58
2022-09-01T02:12:27.369Z,1.42
2022-09-01T02:14:00.974Z,1.63
2022-09-01T02:15:44.380Z,1.75
2022-09-01T02:17:16.270Z,1.60
2022-09-01T02:18:48.241Z,1.35
2022-09-01T02:20:23.206Z,1.45
2022-09-01T02:21:56.363Z,1.50
2022-09-01T02:23:28.511Z,1.27
2022-09-01T02:25:01.085Z,1.40
2022-09-01T02:26:38.733Z,1.42
2022-09-01T02:28:18.489Z,1.35
2022-09-01T02:29:54.778Z,1.58
2022-09-01T02:31:28.252Z,1.67
2022-09-01T02:33:01.937Z,1.48
2022-09-01T02:34:34.838Z,1.30
2022-09-01T02:36:14.355Z,1.48
2022-09-01T02:37:49.469Z,1.38
2022-09-01T02:39:25.026Z,1.48
2022-09-01T02:40:58.610Z,1.42
2022-09-01T02:42:30.398Z,1.50
2022-09-01T02:44:04.271Z,1.20
2022-09-01T02:45:37.396Z,1.80
2022-09-01T02:47:10.118Z,1.40
2022-09-01T02:48:46.306Z,1.33
2022-09-01T02:50:19.397Z,1.48
2022-09-01T02:51:54.132Z,1.70
2022-09-01T02:53:26.478Z,1.40
2022-09-01T02:54:58.698Z,1.70
2022-09-01T02:56:30.495Z,1.35
2022-09-01T02:58:02.476Z,1.30
2022-09-01T02:59:41.820Z,1.40
2022-09-01T03:01:24.968Z,1.30
2022-09-01T03:03:01.988Z,1.27
2022-09-01T03:04:35.461Z,1.20
2022-09-01T03:06:10.255Z,1.42
2022-09-01T03:07:42.677Z,1.30
2022-09-01T03:09:17.347Z,1.40
2022-09-01T03:10:52.134Z,1.60
2022-09-01T03:12:24.219Z,1.40
2022-09-01T03:13:56.094Z,1.58
2022-09-01T03:15:28.582Z,1.38
2022-09-01T03:17:00.834Z,1.60
2022-09-01T03:18:33.317Z,1.30
2022-09-01T03:20:07.362Z,1.42
2022-09-01T03:21:41.211Z,1.20
2022-09-01T03:23:19.331Z,1.55
2022-09-01T03:24:52.452Z,1.30
2022-09-01T03:26:25.218Z,1.23
2022-09-01T03:28:03.053Z,1.50
2022-09-01T03:29:36.833Z,1.33
2022-09-01T03:31:09.177Z,1.35
2022-09-01T03:32:42.119Z,1.23
2022-09-01T03:34:16.599Z,1.30
2022-09-01T03:35:54.444Z,1.30
2022-09-01T03:37:27.063Z,1.42
2022-09-01T03:39:00.677Z,1.33
2022-09-01T03:40:36.507Z,1.15
2022-09-01T03:42:11.553Z,1.40
2022-09-01T03:43:46.854Z,1.55
2022-09-01T03:45:20.560Z,1.33
2022-09-01T03:46:52.940Z,1.88
2022-09-01T03:48:28.937Z,1.40
2022-09-01T03:50:02.150Z,1.52
2022-09-01T03:51:35.389Z,2.10
2022-09-01T03:53:08.137Z,1.30
2022-09-01T03:54:39.919Z,1.20
2022-09-01T03:56:14.105Z,1.58
2022-09-01T03:57:47.581Z,1.63
2022-09-01T03:59:19.865Z,1.50
2022-09-01T04:00:58.475Z,1.60
2022-09-01T04:02:30.794Z,1.38
2022-09-01T04:04:03.219Z,1.58
2022-09-01T04:05:37.694Z,1.80
2022-09-01T04:07:09.661Z,1.50
2022-09-01T04:08:47.461Z,1.27
2022-09-01T04:10:19.289Z,1.60
2022-09-01T04:11:51.777Z,1.30
2022-09-01T04:13:30.809Z,1.80
2022-09-01T04:15:02.609Z,1.52
2022-09-01T04:16:54.018Z,1.75
2022-09-01T04:18:26.165Z,1.65
2022-09-01T04:19:58.417Z,1.73
2022-09-01T04:21:32.121Z,1.70
2022-09-01T04:23:10.936Z,1.80
2022-09-01T04:24:46.174Z,1.50
2022-09-01T04:26:24.097Z,1.77
2022-09-01T04:27:57.197Z,1.50
2022-09-01T04:29:32.050Z,1.70
2022-09-01T04:31:09.323Z,1.90
2022-09-01T04:32:45.766Z,1.48
2022-09-01T04:34:17.967Z,1.80
2022-09-01T04:35:51.458Z,1.98
2022-09-01T04:37:23.715Z,1.73
2022-09-01T04:39:01.806Z,1.90
2022-09-01T04:40:34.487Z,1.70
2022-09-01T04:42:09.410Z,1.63
2022-09-01T04:43:41.234Z,1.65
2022-09-01T04:45:15.399Z,1.88
2022-09-01T04:46:50.914Z,1.83
2022-09-01T04:48:23.089Z,1.80
2022-09-01T04:50:00.591Z,1.60
2022-09-01T04:51:33.375Z,1.70
2022-09-01T04:53:06.330Z,1.58
2022-09-01T04:54:44.816Z,1.80
2022-09-01T04:56:20.787Z,1.45
2022-09-01T04:58:08.301Z,1.80
2022-09-01T04:59:43.245Z,1.50
2022-09-01T05:01:18.350Z,1.73
2022-09-01T05:02:53.427Z,1.50
2022-09-01T05:04:29.490Z,1.30
2022-09-01T05:06:02.634Z,1.20
2022-09-01T05:07:35.049Z,1.48
2022-09-01T05:09:06.886Z,1.20
2022-09-01T05:10:52.385Z,1.42
2022-09-01T05:12:31.847Z,1.52
2022-09-01T05:14:06.754Z,1.45
2022-09-01T05:15:46.742Z,1.60
2022-09-01T05:17:19.314Z,1.50
2022-09-01T05:18:57.100Z,1.30
2022-09-01T05:20:32.117Z,1.30
2022-09-01T05:22:04.840Z,1.30
2022-09-01T05:23:40.953Z,1.33
2022-09-01T05:25:13.777Z,1.30
2022-09-01T05:26:50.792Z,1.10
2022-09-01T05:28:25.452Z,1.30
2022-09-01T05:30:00.320Z,1.40
2022-09-01T05:31:34.908Z,1.52
2022-09-01T05:33:12.556Z,1.50
2022-09-01T05:34:45.316Z,1.30
2022-09-01T05:36:20.546Z,1.50
2022-09-01T05:37:52.388Z,1.85
2022-09-01T05:39:26.798Z,1.55
2022-09-01T05:41:04.528Z,1.35
2022-09-01T05:42:40.778Z,1.42
2022-09-01T05:44:14.235Z,1.40
2022-09-01T05:46:05.488Z,1.77
2022-09-01T05:47:39.602Z,1.58
2022-09-01T05:49:14.052Z,1.70
2022-09-01T05:50:46.892Z,1.63
2022-09-01T05:52:23.363Z,1.73
2022-09-01T05:53:59.387Z,1.63
2022-09-01T05:55:37.768Z,1.65
2022-09-01T05:57:32.703Z,1.60
2022-09-01T06:00:58.567Z,1.65
2022-09-01T06:02:31.070Z,1.60
2022-09-01T06:04:06.722Z,1.90
2022-09-01T06:05:41.080Z,1.50
2022-09-01T06:07:17.802Z,1.50
2022-09-01T06:08:59.722Z,1.50
2022-09-01T06:10:32.595Z,1.35
2022-09-01T06:12:04.413Z,1.77
2022-09-01T06:13:36.161Z,1.50
2022-09-01T06:15:16.052Z,1.58
2022-09-01T06:16:54.327Z,1.95
2022-09-01T06:18:27.915Z,1.55
2022-09-01T06:20:10.708Z,2.10
2022-09-01T06:21:45.281Z,1.70
2022-09-01T06:23:18.072Z,1.80
2022-09-01T06:24:56.647Z,1.92
2022-09-01T06:26:36.082Z,1.98
2022-09-01T06:28:08.699Z,1.92
2022-09-01T06:29:41.014Z,2.15
2022-09-01T06:31:13.146Z,1.77
2022-09-01T06:32:45.139Z,1.80
2022-09-01T06:34:18.253Z,2.00
2022-09-01T06:35:52.713Z,1.67
2022-09-01T06:37:27.188Z,1.92
2022-09-01T06:39:04.015Z,1.90
2022-09-01T06:40:39.906Z,2.42
2022-09-01T06:42:13.150Z,1.67
2022-09-01T06:43:54.946Z,1.73
2022-09-01T06:45:27.053Z,2.08
2022-09-01T06:47:00.143Z,1.92
2022-09-01T06:48:32.120Z,2.00
2022-09-01T06:50:08.736Z,2.00
2022-09-01T06:51:41.042Z,1.90
2022-09-01T06:53:32.891Z,1.80
2022-09-01T06:55:08.028Z,1.55
2022-09-01T06:56:44.688Z,1.80
2022-09-01T06:58:16.998Z,2.10
2022-09-01T06:59:56.209Z,2.15
2022-09-01T07:01:28.439Z,1.63
2022-09-01T07:03:08.136Z,1.63
2022-09-01T07:04:46.514Z,1.50
2022-09-01T07:08:23.621Z,1.95
2022-09-01T07:10:23.504Z,1.70
2022-09-01T07:14:19.226Z,1.90
2022-09-01T07:17:51.540Z,1.55
2022-09-01T07:19:48.272Z,1.50
2022-09-01T07:23:11.714Z,1.48
2022-09-01T07:24:46.242Z,1.52
2022-09-01T07:26:49.940Z,1.30
2022-09-01T07:28:25.342Z,1.30
2022-09-01T07:29:57.381Z,1.40
2022-09-01T07:33:48.017Z,1.10
2022-09-01T07:35:22.629Z,1.50
2022-09-01T07:42:56.829Z,1.30
2022-09-01T07:43:31.036Z,1.00
2022-09-01T07:45:30.968Z,1.48
2022-09-01T07:49:28.407Z,1.30
2022-09-01T07:52:49.852Z,1.02
2022-09-01T07:54:24.115Z,1.10
2022-09-01T07:55:56.649Z,1.30
2022-09-01T07:57:29.884Z,1.08
2022-09-01T07:59:02.356Z,1.38
2022-09-01T08:00:34.435Z,1.30
2022-09-01T08:02:11.446Z,1.20
2022-09-01T08:03:43.561Z,1.20
2022-09-01T08:05:22.549Z,1.10
2022-09-01T08:06:55.962Z,1.00
2022-09-01T08:08:29.274Z,1.27
2022-09-01T08:10:01.928Z,1.40
2022-09-01T08:12:00.560Z,1.20
2022-09-01T08:13:28.981Z,1.23
2022-09-01T08:16:56.475Z,1.05
2022-09-01T08:18:47.710Z,1.30
2022-09-01T08:20:28.149Z,1.40
2022-09-01T08:22:04.505Z,1.30
2022-09-01T08:23:56.238Z,1.30
2022-09-01T08:25:28.959Z,1.10
2022-09-01T08:27:00.817Z,1.05
2022-09-01T08:28:33.818Z,1.00
2022-09-01T08:30:08.381Z,1.20
2022-09-01T08:31:40.195Z,1.20
2022-09-01T08:33:12.218Z,1.15
2022-09-01T08:34:48.139Z,1.25
2022-09-01T08:36:24.017Z,1.30
2022-09-01T08:37:59.056Z,1.58
2022-09-01T08:39:32.917Z,1.30
2022-09-01T08:41:16.615Z,1.17
2022-09-01T08:43:25.106Z,1.38
2022-09-01T08:45:15.832Z,1.27
2022-09-01T08:46:53.135Z,1.20
2022-09-01T08:50:24.182Z,1.05
2022-09-01T08:52:27.429Z,1.20
2022-09-01T08:54:29.920Z,1.30
2022-09-01T08:56:04.757Z,1.20
2022-09-01T08:57:40.162Z,1.40
2022-09-01T08:59:24.253Z,0.90
2022-09-01T09:02:07.748Z,1.10
2022-09-01T09:03:58.169Z,1.20
2022-09-01T09:05:51.125Z,1.05
2022-09-01T09:07:40.674Z,0.98
2022-09-01T09:09:12.469Z,1.08
2022-09-01T09:11:04.646Z,1.10
2022-09-01T09:12:53.037Z,1.00
2022-09-01T09:14:47.750Z,1.00
2022-09-01T09:16:25.939Z,1.38
2022-09-01T09:18:20.025Z,0.90
2022-09-01T09:20:09.393Z,1.02
2022-09-01T09:21:47.502Z,0.95
2022-09-01T09:23:30.052Z,1.35
2022-09-01T09:25:10.337Z,1.30
2022-09-01T09:26:42.555Z,1.47
2022-09-01T09:28:14.589Z,1.23
2022-09-01T09:30:11.649Z,1.35
2022-09-01T09:31:46.243Z,1.13
2022-09-01T09:33:51.679Z,1.00
2022-09-01T09:35:36.420Z,0.95
2022-09-01T09:37:22.023Z,0.90
2022-09-01T09:39:12.882Z,1.27
2022-09-01T09:41:20.852Z,1.10
2022-09-01T09:42:54.682Z,1.48
2022-09-01T09:44:33.046Z,1.15
2022-09-01T09:46:43.706Z,1.52
2022-09-01T09:48:31.583Z,1.30
2022-09-01T09:50:15.121Z,1.45
2022-09-01T09:52:13.311Z,1.48
2022-09-01T09:53:48.687Z,1.48
2022-09-01T09:55:27.362Z,1.10
2022-09-01T09:57:15.305Z,1.15
2022-09-01T09:58:49.074Z,1.23
2022-09-01T10:00:29.035Z,1.25
2022-09-01T10:02:17.030Z,1.30
2022-09-01T10:03:52.426Z,1.30
2022-09-01T10:05:30.127Z,1.30
2022-09-01T10:07:02.237Z,1.27
2022-09-01T10:08:38.291Z,1.80
2022-09-01T10:10:31.364Z,1.27
2022-09-01T10:12:03.519Z,1.15
2022-09-01T10:13:36.918Z,1.20
2022-09-01T10:15:14.119Z,0.98
2022-09-01T10:16:52.214Z,1.30
2022-09-01T10:18:29.761Z,0.95
2022-09-01T10:20:07.993Z,1.13
2022-09-01T10:21:45.281Z,1.10
2022-09-01T10:23:17.993Z,1.23
2022-09-01T10:24:50.288Z,1.27
2022-09-01T10:26:32.260Z,1.15
2022-09-01T10:28:22.232Z,1.30
2022-09-01T10:30:14.493Z,1.40
2022-09-01T10:32:03.409Z,1.00
2022-09-01T10:33:42.773Z,1.00
2022-09-01T10:35:24.066Z,1.40
2022-09-01T10:36:57.118Z,0.90
2022-09-01T10:38:31.049Z,1.30
2022-09-01T10:40:20.610Z,1.00
2022-09-01T10:41:59.479Z,1.00
2022-09-01T10:43:45.266Z,1.20
2022-09-01T10:45:32.478Z,1.00
2022-09-01T10:47:25.108Z,0.70
2022-09-01T10:49:03.597Z,1.00
2022-09-01T10:50:36.122Z,1.00
2022-09-01T10:52:13.189Z,0.82
2022-09-01T10:53:47.014Z,0.90
2022-09-01T10:55:26.064Z,0.95
2022-09-01T10:57:03.922Z,1.00
2022-09-01T11:00:40.821Z,1.05
2022-09-01T11:02:26.767Z,0.80
2022-09-01T11:04:00.642Z,1.08
2022-09-01T11:06:11.447Z,0.85
2022-09-01T11:08:01.948Z,1.00
2022-09-01T11:09:37.982Z,0.80
2022-09-01T11:11:21.617Z,0.98
2022-09-01T11:13:20.021Z,0.90
2022-09-01T11:15:06.981Z,0.80
2022-09-01T11:16:47.785Z,0.80
2022-09-01T11:18:27.876Z,0.88
2022-09-01T11:20:00.137Z,0.80
2022-09-01T11:21:33.345Z,0.80
2022-09-01T11:23:08.173Z,0.75
2022-09-01T11:24:41.539Z,0.93
2022-09-01T11:26:35.676Z,0.70
2022-09-01T11:28:32.914Z,0.90
2022-09-01T11:30:09.667Z,0.80
2022-09-01T11:31:44.710Z,1.00
2022-09-01T11:33:16.455Z,1.00
2022-09-01T11:34:50.111Z,0.93
2022-09-01T11:36:35.469Z,0.90
2022-09-01T11:38:09.313Z,0.90
2022-09-01T11:39:55.009Z,0.80
2022-09-01T11:41:33.997Z,0.75
2022-09-01T11:43:14.434Z,0.68
2022-09-01T11:44:50.669Z,0.73
2022-09-01T11:46:27.132Z,1.00
2022-09-01T11:48:02.512Z,1.10
2022-09-01T11:49:38.905Z,1.05
2022-09-01T11:51:14.713Z,0.88
2022-09-01T11:53:04.914Z,0.90
2022-09-01T11:54:41.462Z,1.00
2022-09-01T11:56:25.571Z,1.13
2022-09-01T11:57:57.893Z,0.90
2022-09-01T11:59:31.391Z,1.00
2022-09-01T12:01:20.602Z,0.90
2022-09-01T12:02:54.608Z,0.90
2022-09-01T12:04:33.660Z,0.90
2022-09-01T12:06:08.577Z,0.70
2022-09-01T12:07:45.101Z,0.80
2022-09-01T12:09:16.884Z,0.90
2022-09-01T12:10:48.808Z,0.80
2022-09-01T12:12:39.258Z,1.00
2022-09-01T12:14:19.482Z,0.75
2022-09-01T12:16:17.395Z,0.85
2022-09-01T12:17:50.895Z,0.60
2022-09-01T12:19:25.944Z,0.77
2022-09-01T12:20:59.968Z,0.75
2022-09-01T12:22:31.711Z,0.68
2022-09-01T12:24:24.221Z,0.80
2022-09-01T12:25:59.055Z,0.80
2022-09-01T12:27:30.792Z,0.70
2022-09-01T12:29:02.688Z,0.82
2022-09-01T12:30:39.497Z,0.70
2022-09-01T12:32:12.370Z,0.77
2022-09-01T12:33:44.778Z,0.70
2022-09-01T12:35:26.020Z,0.60
2022-09-01T12:38:35.533Z,0.60
2022-09-01T12:40:23.880Z,0.57
2022-09-01T12:42:28.455Z,0.70
2022-09-01T12:44:43.509Z,0.57
2022-09-01T12:46:44.952Z,0.80
2022-09-01T12:48:31.480Z,0.82
2022-09-01T12:50:16.452Z,0.75
2022-09-01T12:51:48.809Z,0.60
2022-09-01T12:53:22.981Z,0.73
2022-09-01T12:54:57.808Z,0.82
2022-09-01T12:56:34.932Z,0.60
2022-09-01T12:58:09.245Z,0.77
2022-09-01T12:59:41.038Z,0.90
2022-09-01T13:01:28.817Z,0.60
2022-09-01T13:03:05.247Z,0.60
2022-09-01T13:04:41.793Z,0.60
2022-09-01T13:06:13.536Z,0.70
2022-09-01T13:07:45.278Z,0.68
2022-09-01T13:09:17.545Z,0.75
2022-09-01T13:10:53.473Z,0.60
2022-09-01T13:12:25.301Z,0.50
2022-09-01T13:13:57.288Z,0.63
2022-09-01T13:15:29.036Z,0.50
2022-09-01T13:17:01.337Z,0.60
2022-09-01T13:18:33.171Z,0.60
2022-09-01T13:20:06.946Z,0.40
2022-09-01T13:23:31.115Z,0.47
2022-09-01T13:25:03.238Z,0.50
2022-09-01T13:26:35.345Z,0.47
2022-09-01T13:28:08.998Z,0.50
2022-09-01T13:29:41.892Z,0.50
2022-09-01T13:31:30.370Z,0.52
2022-09-01T13:33:19.222Z,0.43
2022-09-01T13:34:53.759Z,0.40
2022-09-01T13:38:18.194Z,0.40
2022-09-01T13:39:50.550Z,0.88
2022-09-01T13:41:22.407Z,0.40
2022-09-01T13:42:54.827Z,0.50
2022-09-01T13:44:26.919Z,0.43
2022-09-01T13:45:59.087Z,0.47
2022-09-01T13:47:32.086Z,0.40
2022-09-01T13:49:41.125Z,0.40
2022-09-01T13:51:14.989Z,0.40
2022-09-01T13:52:55.748Z,0.30
2022-09-01T13:54:27.480Z,0.47
2022-09-01T13:55:59.239Z,0.30
2022-09-01T13:57:35.827Z,0.40
2022-09-01T13:59:08.395Z,0.30
2022-09-01T14:00:43.261Z,0.40
2022-09-01T14:02:15.226Z,0.40
2022-09-01T14:03:51.896Z,0.40
2022-09-01T14:05:27.033Z,0.50
2022-09-01T14:06:59.838Z,0.60
2022-09-01T14:08:33.389Z,0.60
2022-09-01T14:10:07.422Z,0.60
2022-09-01T14:11:39.519Z,0.80
2022-09-01T14:13:12.966Z,0.65
2022-09-01T14:16:36.545Z,0.47
2022-09-01T14:18:08.657Z,0.60
2022-09-01T14:19:40.414Z,0.60
2022-09-01T14:21:14.820Z,0.50
2022-09-01T14:22:47.590Z,0.70
2022-09-01T14:24:20.105Z,0.70
2022-09-01T14:25:52.299Z,0.60
2022-09-01T14:27:24.118Z,0.50
2022-09-01T14:28:55.866Z,0.70
2022-09-01T14:30:31.633Z,0.75
2022-09-01T14:32:04.243Z,0.70
2022-09-01T14:33:36.860Z,0.80
2022-09-01T14:35:09.046Z,0.70
2022-09-01T14:36:40.856Z,0.77
2022-09-01T14:38:13.626Z,0.65
2022-09-01T14:39:50.683Z,0.60
2022-09-01T14:41:26.958Z,0.60
2022-09-01T14:42:59.936Z,0.50
2022-09-01T14:44:33.758Z,0.60
2022-09-01T14:46:10.904Z,0.57
2022-09-01T14:47:44.278Z,0.50
2022-09-01T14:49:21.725Z,0.70
2022-09-01T14:50:54.370Z,0.40
2022-09-01T14:52:26.126Z,0.50
2022-09-01T14:53:58.028Z,0.30
2022-09-01T14:55:30.865Z,0.40
2022-09-01T14:59:00.547Z,0.40
2022-09-01T15:00:35.969Z,0.60
2022-09-01T15:02:10.825Z,0.43
2022-09-01T15:03:43.398Z,0.50
2022-09-01T15:05:15.289Z,0.30
2022-09-01T15:06:47.135Z,0.40
2022-09-01T15:08:23.724Z,0.80
2022-09-01T15:09:55.646Z,0.40
2022-09-01T15:11:28.557Z,0.40
2022-09-01T15:13:01.476Z,0.38
2022-09-01T15:14:33.514Z,0.52
2022-09-01T15:16:12.588Z,0.47
2022-09-01T15:17:46.447Z,0.60
2022-09-01T15:19:18.506Z,0.40
2022-09-01T15:20:51.200Z,0.30
2022-09-01T15:22:22.938Z,0.38
2022-09-01T15:23:55.156Z,0.30
2022-09-01T15:25:26.999Z,0.40
2022-09-01T15:26:58.754Z,0.40
2022-09-01T15:28:30.474Z,0.45
2022-09-01T15:30:02.221Z,0.30
2022-09-01T15:31:34.063Z,0.50
2022-09-01T15:33:06.875Z,0.30
2022-09-01T15:34:39.094Z,0.32
2022-09-01T15:36:17.836Z,0.40
2022-09-01T15:37:51.134Z,0.30
2022-09-01T15:39:22.873Z,0.43
2022-09-01T15:40:58.523Z,0.40
2022-09-01T15:42:30.956Z,0.38
2022-09-01T15:44:06.215Z,0.45
2022-09-01T15:45:39.278Z,0.50
2022-09-01T15:47:11.022Z,0.45
2022-09-01T15:48:45.833Z,0.50
2022-09-01T15:50:22.096Z,0.50
2022-09-01T15:51:56.757Z,0.60
2022-09-01T15:53:28.522Z,0.50
2022-09-01T15:55:01.137Z,0.70
2022-09-01T15:56:33.096Z,0.45
2022-09-01T15:58:04.922Z,0.40
2022-09-01T15:59:40.152Z,0.50
2022-09-01T16:01:11.958Z,0.60
2022-09-01T16:02:43.933Z,0.60
2022-09-01T16:04:19.263Z,0.50
2022-09-01T16:05:51.790Z,0.50
2022-09-01T16:07:23.891Z,0.43
2022-09-01T16:08:58.277Z,0.52
2022-09-01T16:10:35.071Z,0.70
2022-09-01T16:12:09.867Z,0.47
2022-09-01T16:13:42.815Z,0.60
2022-09-01T16:15:17.110Z,0.45
2022-09-01T16:16:56.724Z,0.50
2022-09-01T16:18:41.909Z,0.40
2022-09-01T16:20:23.828Z,0.50
2022-09-01T16:22:03.475Z,0.50
2022-09-01T16:23:48.958Z,0.50
2022-09-01T16:25:32.040Z,0.60
2022-09-01T16:27:07.209Z,0.52
2022-09-01T16:28:39.370Z,0.50
2022-09-01T16:30:14.565Z,0.65
2022-09-01T16:31:53.944Z,0.47
2022-09-01T16:33:25.796Z,0.50
2022-09-01T16:34:58.097Z,0.60
2022-09-01T16:36:40.619Z,0.60
2022-09-01T16:38:33.218Z,0.60
2022-09-01T16:40:16.965Z,0.50
2022-09-01T16:42:07.418Z,0.40
2022-09-01T16:44:26.610Z,0.47
2022-09-01T16:46:14.064Z,0.40
2022-09-01T16:47:59.488Z,0.40
2022-09-01T16:49:46.812Z,0.40
2022-09-01T16:51:22.963Z,0.43
2022-09-01T16:53:12.181Z,0.30
2022-09-01T16:55:11.247Z,0.60
2022-09-01T16:57:26.598Z,0.38
2022-09-01T17:01:23.950Z,0.50
2022-09-01T17:03:34.318Z,0.50
2022-09-01T17:05:20.146Z,0.50
2022-09-01T17:07:02.820Z,0.60
2022-09-01T17:08:50.003Z,0.43
2022-09-01T17:10:46.711Z,0.40
2022-09-01T17:12:23.418Z,0.50
2022-09-01T17:13:56.281Z,0.75
2022-09-01T17:15:39.520Z,0.47
2022-09-01T17:17:19.190Z,0.50
2022-09-01T17:18:57.642Z,0.40
2022-09-01T17:20:35.318Z,0.40
2022-09-01T17:22:11.574Z,0.65
2022-09-01T17:23:55.741Z,0.50
2022-09-01T17:25:39.271Z,0.43
2022-09-01T17:27:21.224Z,0.50
2022-09-01T17:29:02.642Z,0.50
2022-09-01T17:32:30.961Z,0.57
2022-09-01T17:34:40.866Z,0.40
2022-09-01T17:36:24.116Z,0.60
2022-09-01T17:38:18.592Z,0.50
2022-09-01T17:40:03.420Z,0.60
2022-09-01T17:41:56.362Z,0.80
2022-09-01T17:43:43.078Z,0.65
2022-09-01T17:45:22.025Z,0.50
2022-09-01T17:47:21.499Z,0.68
2022-09-01T17:48:59.503Z,0.60
2022-09-01T17:51:01.157Z,0.80
2022-09-01T17:52:40.115Z,0.47
2022-09-01T17:54:18.840Z,0.63
2022-09-01T17:56:11.950Z,0.77
2022-09-01T17:58:01.174Z,0.60
2022-09-01T18:00:05.753Z,0.70
2022-09-01T18:01:58.587Z,0.50
2022-09-01T18:03:46.539Z,0.68
2022-09-01T18:05:24.323Z,0.57
2022-09-01T18:07:07.084Z,1.00
2022-09-01T18:08:47.988Z,0.90
2022-09-01T18:10:33.284Z,1.00
2022-09-01T18:12:09.887Z,0.80
2022-09-01T18:14:05.901Z,0.90
2022-09-01T18:15:51.826Z,0.77
2022-09-01T18:18:12.176Z,0.70
2022-09-01T18:19:48.013Z,0.73
2022-09-01T18:21:24.382Z,0.70
2022-09-01T18:23:04.519Z,0.70
2022-09-01T18:24:54.406Z,0.80
2022-09-01T18:26:32.415Z,0.70
2022-09-01T18:28:05.435Z,0.90
2022-09-01T18:29:37.149Z,0.50
2022-09-01T18:31:26.902Z,0.93
2022-09-01T18:33:14.037Z,1.08
2022-09-01T18:35:11.797Z,0.80
2022-09-01T18:37:08.520Z,0.68
2022-09-01T18:38:57.566Z,0.77
2022-09-01T18:40:42.388Z,0.90
2022-09-01T18:42:16.938Z,0.75
2022-09-01T18:44:14.869Z,0.70
2022-09-01T18:45:57.776Z,0.60
2022-09-01T18:47:33.343Z,0.90
2022-09-01T18:49:30.202Z,0.68
2022-09-01T18:51:17.631Z,0.80
2022-09-01T18:53:12.409Z,0.88
2022-09-01T18:55:09.144Z,0.80
2022-09-01T18:56:52.539Z,0.70
2022-09-01T18:58:42.480Z,0.82
2022-09-01T19:00:19.317Z,1.10
2022-09-01T19:01:56.814Z,0.90
2022-09-01T19:03:33.991Z,1.20
2022-09-01T19:05:16.748Z,0.80
2022-09-01T19:07:26.581Z,1.05
2022-09-01T19:09:09.020Z,1.10
2022-09-01T19:11:01.424Z,1.27
2022-09-01T19:13:00.728Z,0.90
2022-09-01T19:14:56.736Z,1.05
2022-09-01T19:16:37.155Z,1.10
2022-09-01T19:18:30.328Z,1.33
2022-09-01T19:20:04.970Z,1.00
2022-09-01T19:21:36.723Z,0.95
2022-09-01T19:23:41.189Z,0.98
2022-09-01T19:25:37.134Z,1.00
2022-09-01T19:27:13.763Z,1.00
2022-09-01T19:29:01.745Z,1.10
2022-09-01T19:30:35.753Z,1.00
2022-09-01T19:32:12.048Z,0.95
2022-09-01T19:33:49.081Z,1.02
2022-09-01T19:35:20.821Z,0.60
2022-09-01T19:36:58.128Z,0.90
2022-09-01T19:38:30.445Z,0.93
2022-09-01T19:40:02.935Z,0.80
2022-09-01T19:41:40.452Z,1.00
2022-09-01T19:43:18.078Z,0.80
2022-09-01T19:45:13.934Z,0.80
2022-09-01T19:46:52.325Z,0.75
2022-09-01T19:48:32.943Z,0.90
2022-09-01T19:50:18.118Z,1.00
2022-09-01T19:52:11.018Z,1.00
2022-09-01T19:53:58.671Z,0.90
2022-09-01T19:55:45.157Z,0.98
2022-09-01T19:57:19.670Z,0.80
2022-09-01T19:59:13.686Z,1.00
2022-09-01T20:00:52.695Z,1.10
2022-09-01T20:03:07.864Z,0.90
2022-09-01T20:05:08.845Z,1.10
2022-09-01T20:06:51.169Z,0.95
2022-09-01T20:08:41.887Z,1.20
2022-09-01T20:10:32.117Z,0.90
2022-09-01T20:12:18.673Z,0.90
2022-09-01T20:13:59.438Z,0.90
2022-09-01T20:15:52.956Z,0.90
2022-09-01T20:17:46.438Z,0.98
2022-09-01T20:19:31.898Z,1.02
2022-09-01T20:21:09.062Z,0.82
2022-09-01T20:23:01.479Z,1.10
2022-09-01T20:24:39.737Z,1.00
2022-09-01T20:26:22.305Z,1.10
2022-09-01T20:28:07.099Z,0.90
2022-09-01T20:29:46.868Z,0.80
2022-09-01T20:31:32.266Z,0.90
2022-09-01T20:33:09.738Z,1.10
2022-09-01T20:34:55.106Z,1.00
2022-09-01T20:36:44.993Z,1.08
2022-09-01T20:38:42.375Z,1.10
2022-09-01T20:40:26.935Z,1.40
2022-09-01T20:42:04.857Z,1.08
2022-09-01T20:43:41.387Z,1.17
2022-09-01T20:45:24.745Z,0.90
2022-09-01T20:46:57.826Z,1.00
2022-09-01T20:48:32.262Z,1.00
2022-09-01T20:50:11.769Z,1.20
2022-09-01T20:52:18.911Z,1.08
2022-09-01T20:53:56.409Z,1.17
2022-09-01T20:55:35.279Z,1.23
2022-09-01T20:57:12.944Z,1.15
2022-09-01T21:00:28.473Z,1.23
2022-09-01T21:02:30.475Z,1.20
2022-09-01T21:04:12.902Z,1.27
2022-09-01T21:05:52.621Z,1.00
2022-09-01T21:07:35.010Z,1.30
2022-09-01T21:09:58.746Z,1.08
2022-09-01T21:11:42.671Z,1.08
2022-09-01T21:13:49.189Z,1.00
2022-09-01T21:15:30.576Z,1.17
2022-09-01T21:19:15.531Z,1.00
2022-09-01T21:21:16.334Z,0.90
2022-09-01T21:22:50.665Z,0.90
2022-09-01T21:24:22.413Z,0.82
2022-09-01T21:25:54.397Z,0.90
2022-09-01T21:27:31.297Z,0.88
2022-09-01T21:29:20.031Z,0.95
2022-09-01T21:30:57.807Z,0.90
2022-09-01T21:32:31.838Z,1.23
2022-09-01T21:34:03.584Z,0.80
2022-09-01T21:35:35.330Z,0.93
2022-09-01T21:37:07.077Z,0.82
2022-09-01T21:38:38.797Z,0.77
2022-09-01T21:40:12.348Z,0.73
2022-09-01T21:41:44.125Z,0.80
2022-09-01T21:43:23.650Z,0.80
2022-09-01T21:44:56.743Z,0.77
2022-09-01T21:46:28.625Z,0.70
2022-09-01T21:48:02.168Z,0.90
2022-09-01T21:49:33.921Z,0.70
2022-09-01T21:51:05.739Z,0.70
2022-09-01T21:52:37.853Z,0.80
2022-09-01T21:54:10.057Z,0.77
2022-09-01T21:55:42.237Z,0.65
2022-09-01T21:57:14.604Z,0.80
2022-09-01T21:58:49.904Z,0.80
2022-09-01T22:00:25.213Z,0.95
2022-09-01T22:01:57.157Z,0.65
2022-09-01T22:03:29.181Z,0.60
2022-09-01T22:05:01.474Z,0.93
2022-09-01T22:06:34.170Z,0.75
2022-09-01T22:08:07.061Z,0.80
2022-09-01T22:09:38.789Z,0.68
2022-09-01T22:11:10.834Z,0.80
2022-09-01T22:12:45.528Z,0.90
2022-09-01T22:14:19.137Z,0.93
2022-09-01T22:15:53.016Z,0.75
2022-09-01T22:17:24.753Z,0.80
2022-09-01T22:18:56.497Z,0.90
2022-09-01T22:20:31.925Z,0.88
2022-09-01T22:22:04.058Z,0.73
2022-09-01T22:23:36.834Z,0.82
2022-09-01T22:25:12.246Z,0.70
2022-09-01T22:26:44.250Z,0.93
2022-09-01T22:28:15.990Z,0.63
2022-09-01T22:29:47.752Z,0.77
2022-09-01T22:31:21.689Z,0.60
2022-09-01T22:32:54.093Z,0.70
2022-09-01T22:34:25.952Z,0.90
2022-09-01T22:35:57.797Z,0.80
2022-09-01T22:37:29.676Z,0.70
2022-09-01T22:39:01.742Z,1.10